createdAt,value
2023-09-26T00:00:25.011Z,15.13
2023-09-26T00:02:54.280Z,12.57
2023-09-26T00:05:24.553Z,8.85
2023-09-26T00:07:53.120Z,15.50
2023-09-26T00:10:21.589Z,11.40
2023-09-26T00:12:49.633Z,12.00
2023-09-26T00:15:17.302Z,12.35
2023-09-26T00:17:45.295Z,12.88
2023-09-26T00:20:20.177Z,14.55
2023-09-26T00:22:48.007Z,13.70
2023-09-26T00:25:16.088Z,10.40
2023-09-26T00:27:43.972Z,11.98
2023-09-26T00:30:11.601Z,9.00
2023-09-26T00:32:40.292Z,11.10
2023-09-26T00:35:13.355Z,12.27
2023-09-26T00:37:43.426Z,12.40
2023-09-26T00:40:13.854Z,12.70
2023-09-26T00:42:41.660Z,13.30
2023-09-26T00:45:09.445Z,16.35
2023-09-26T00:47:38.053Z,13.65
2023-09-26T00:50:12.789Z,17.45
2023-09-26T00:52:46.965Z,14.18
2023-09-26T00:55:16.013Z,13.20
2023-09-26T00:57:44.443Z,16.15
2023-09-26T01:00:14.561Z,14.45
2023-09-26T01:02:43.175Z,11.80
2023-09-26T01:05:10.782Z,13.75
2023-09-26T01:07:39.639Z,17.15
2023-09-26T01:10:08.632Z,13.23
2023-09-26T01:12:37.705Z,15.77
2023-09-26T01:15:06.745Z,15.23
2023-09-26T01:17:34.395Z,19.52
2023-09-26T01:20:02.459Z,16.30
2023-09-26T01:22:32.304Z,17.52
2023-09-26T01:25:00.913Z,16.23
2023-09-26T01:27:28.545Z,11.85
2023-09-26T01:29:56.606Z,15.68
2023-09-26T01:32:24.381Z,20.67
2023-09-26T01:34:53.340Z,20.17
2023-09-26T01:37:21.895Z,19.42
2023-09-26T01:39:49.409Z,16.58
2023-09-26T01:42:16.976Z,17.23
2023-09-26T01:44:44.474Z,16.20
2023-09-26T01:47:19.586Z,17.85
2023-09-26T01:49:47.517Z,17.50
2023-09-26T01:52:15.126Z,17.00
2023-09-26T01:54:42.883Z,20.35
2023-09-26T01:57:10.433Z,19.48
2023-09-26T01:59:37.989Z,22.75
2023-09-26T02:02:05.582Z,17.92
2023-09-26T02:04:33.237Z,19.30
2023-09-26T02:07:00.722Z,18.63
2023-09-26T02:09:28.387Z,17.00
2023-09-26T02:11:56.267Z,16.90
2023-09-26T02:14:23.812Z,14.50
2023-09-26T02:16:51.458Z,15.27
2023-09-26T02:19:19.191Z,22.70
2023-09-26T02:21:47.155Z,18.90
2023-09-26T02:24:14.777Z,21.83
2023-09-26T02:26:42.853Z,22.42
2023-09-26T02:29:10.578Z,21.20
2023-09-26T02:31:38.086Z,19.27
2023-09-26T02:34:07.405Z,19.83
2023-09-26T02:36:34.946Z,20.20
2023-09-26T02:39:02.509Z,18.45
2023-09-26T02:41:30.102Z,18.92
2023-09-26T02:44:00.006Z,17.75
2023-09-26T02:46:27.794Z,21.48
2023-09-26T02:48:55.425Z,20.92
2023-09-26T02:51:22.989Z,17.75
2023-09-26T02:53:50.704Z,19.50
2023-09-26T02:56:18.619Z,19.70
2023-09-26T02:58:46.125Z,18.38
2023-09-26T03:01:18.269Z,20.88
2023-09-26T03:03:46.093Z,18.92
2023-09-26T03:06:13.648Z,17.23
2023-09-26T03:08:41.432Z,17.88
2023-09-26T03:11:08.916Z,18.25
2023-09-26T03:13:36.593Z,17.38
2023-09-26T03:16:05.827Z,20.15
2023-09-26T03:18:33.514Z,19.95
2023-09-26T03:21:06.595Z,21.38
2023-09-26T03:23:35.050Z,21.77
2023-09-26T03:26:02.584Z,19.83
2023-09-26T03:28:30.223Z,18.20
2023-09-26T03:30:57.857Z,21.80
2023-09-26T03:33:25.695Z,23.67
2023-09-26T03:35:53.236Z,24.05
2023-09-26T03:38:22.324Z,28.52
2023-09-26T03:41:00.405Z,28.67
2023-09-26T03:43:28.337Z,25.90
2023-09-26T03:46:07.815Z,23.60
2023-09-26T03:48:36.500Z,25.80
2023-09-26T03:51:15.050Z,24.75
2023-09-26T03:53:43.774Z,28.48
2023-09-26T03:56:11.393Z,25.58
2023-09-26T03:58:39.555Z,27.00
2023-09-26T04:01:16.021Z,24.58
2023-09-26T04:03:47.736Z,23.30
2023-09-26T04:06:18.251Z,23.60
2023-09-26T04:08:47.159Z,24.52
2023-09-26T04:11:18.918Z,25.48
2023-09-26T04:13:46.625Z,32.55
2023-09-26T04:16:14.250Z,25.67
2023-09-26T04:18:41.835Z,27.35
2023-09-26T04:21:12.153Z,30.52
2023-09-26T04:23:40.513Z,34.80
2023-09-26T04:26:16.082Z,32.72
2023-09-26T04:28:45.088Z,31.73
2023-09-26T04:31:20.423Z,32.92
2023-09-26T04:33:51.843Z,33.10
2023-09-26T04:36:19.831Z,34.53
2023-09-26T04:38:48.051Z,35.88
2023-09-26T04:41:15.726Z,35.60
2023-09-26T04:43:43.517Z,34.78
2023-09-26T04:46:15.399Z,36.13
2023-09-26T04:48:44.976Z,33.08
2023-09-26T04:51:15.874Z,41.03
2023-09-26T04:53:43.840Z,36.33
2023-09-26T04:56:11.549Z,34.25
2023-09-26T04:58:39.594Z,35.70
2023-09-26T05:01:15.836Z,41.28
2023-09-26T05:03:44.591Z,38.03
2023-09-26T05:06:13.345Z,37.80
2023-09-26T05:08:41.986Z,39.15
2023-09-26T05:11:18.356Z,45.28
2023-09-26T05:13:46.163Z,43.88
2023-09-26T05:16:16.132Z,41.17
2023-09-26T05:18:43.926Z,40.63
2023-09-26T05:21:13.058Z,35.10
2023-09-26T05:23:40.862Z,34.13
2023-09-26T05:26:10.577Z,35.65
2023-09-26T05:28:38.792Z,37.65
2023-09-26T05:31:06.958Z,35.13
2023-09-26T05:33:34.542Z,29.50
2023-09-26T05:36:02.082Z,32.65
2023-09-26T05:38:29.839Z,29.23
2023-09-26T05:40:57.513Z,27.90
2023-09-26T05:43:25.105Z,32.17
2023-09-26T05:45:52.949Z,32.15
2023-09-26T05:48:21.153Z,27.73
2023-09-26T05:50:48.740Z,32.45
2023-09-26T05:53:16.421Z,31.08
2023-09-26T05:55:43.854Z,29.00
2023-09-26T05:58:11.606Z,27.52
2023-09-26T06:00:39.219Z,27.17
2023-09-26T06:03:07.055Z,28.45
2023-09-26T06:05:37.792Z,26.02
2023-09-26T06:08:05.731Z,25.73
2023-09-26T06:10:33.370Z,27.58
2023-09-26T06:13:01.491Z,24.40
2023-09-26T06:15:29.354Z,27.08
2023-09-26T06:18:01.272Z,27.10
2023-09-26T06:20:29.654Z,26.52
2023-09-26T06:22:57.936Z,24.13
2023-09-26T06:25:25.577Z,27.55
2023-09-26T06:27:53.458Z,24.88
2023-09-26T06:30:21.115Z,26.50
2023-09-26T06:32:48.763Z,25.92
2023-09-26T06:35:16.349Z,21.08
2023-09-26T06:37:43.826Z,21.42
2023-09-26T06:40:12.057Z,21.48
2023-09-26T06:42:40.510Z,20.75
2023-09-26T06:45:09.522Z,25.50
2023-09-26T06:47:37.161Z,22.88
2023-09-26T06:50:06.558Z,22.27
2023-09-26T06:52:34.950Z,23.80
2023-09-26T06:55:04.320Z,19.02
2023-09-26T06:57:31.905Z,20.63
2023-09-26T07:00:00.836Z,16.70
2023-09-26T07:02:28.392Z,19.45
2023-09-26T07:04:57.838Z,18.55
2023-09-26T07:07:25.609Z,17.38
2023-09-26T07:09:53.241Z,19.77
2023-09-26T07:12:20.824Z,18.73
2023-09-26T07:14:49.135Z,20.10
2023-09-26T07:17:16.817Z,20.75
2023-09-26T07:19:44.317Z,20.75
2023-09-26T07:22:11.958Z,20.52
2023-09-26T07:24:49.783Z,21.27
2023-09-26T07:27:19.522Z,19.02
2023-09-26T07:29:48.431Z,18.65
2023-09-26T07:32:16.988Z,20.08
2023-09-26T07:34:44.587Z,18.25
2023-09-26T07:37:13.567Z,15.45
2023-09-26T07:39:46.386Z,14.93
2023-09-26T07:42:14.025Z,17.00
2023-09-26T07:44:41.576Z,15.40
2023-09-26T07:47:09.661Z,15.15
2023-09-26T07:49:37.269Z,14.15
2023-09-26T07:52:05.439Z,15.98
2023-09-26T07:54:33.722Z,16.73
2023-09-26T07:57:01.317Z,18.55
2023-09-26T07:59:28.966Z,21.30
2023-09-26T08:01:56.565Z,14.40
2023-09-26T08:04:24.861Z,15.60
2023-09-26T08:06:52.538Z,20.80
2023-09-26T08:09:20.022Z,20.55
2023-09-26T08:11:47.855Z,15.02
2023-09-26T08:14:15.388Z,19.30
2023-09-26T08:16:43.020Z,17.10
2023-09-26T08:19:10.628Z,15.55
2023-09-26T08:21:38.341Z,20.35
2023-09-26T08:24:06.141Z,20.48
2023-09-26T08:26:33.853Z,22.27
2023-09-26T08:29:01.623Z,21.33
2023-09-26T08:31:29.260Z,21.00
2023-09-26T08:33:56.992Z,17.90
2023-09-26T08:36:24.824Z,18.83
2023-09-26T08:38:52.861Z,21.08
2023-09-26T08:41:21.685Z,17.00
2023-09-26T08:43:49.496Z,18.73
2023-09-26T08:46:18.649Z,19.20
2023-09-26T08:48:47.531Z,16.10
2023-09-26T08:51:15.346Z,22.48
2023-09-26T08:53:42.868Z,21.50
2023-09-26T08:56:10.496Z,19.58
2023-09-26T08:58:41.926Z,23.67
2023-09-26T09:01:09.982Z,20.90
2023-09-26T09:03:37.676Z,20.50
2023-09-26T09:06:06.315Z,21.45
2023-09-26T09:08:33.978Z,19.33
2023-09-26T09:11:01.638Z,21.80
2023-09-26T09:13:34.661Z,18.02
2023-09-26T09:16:20.133Z,22.00
2023-09-26T09:19:01.123Z,19.83
2023-09-26T09:21:35.621Z,25.15
2023-09-26T09:24:14.002Z,23.52
2023-09-26T09:26:42.352Z,20.25
2023-09-26T09:29:24.510Z,22.73
2023-09-26T09:31:53.311Z,22.95
2023-09-26T09:34:23.162Z,20.00
2023-09-26T09:36:51.709Z,26.67
2023-09-26T09:39:21.061Z,19.90
2023-09-26T09:41:48.977Z,22.30
2023-09-26T09:44:16.579Z,21.95
2023-09-26T09:46:44.722Z,21.85
2023-09-26T09:49:15.706Z,27.25
2023-09-26T09:51:46.132Z,25.77
2023-09-26T09:54:15.697Z,22.25
2023-09-26T09:56:47.620Z,22.42
2023-09-26T09:59:17.998Z,21.55
2023-09-26T10:01:51.496Z,22.60
2023-09-26T10:04:20.716Z,22.90
2023-09-26T10:06:49.022Z,21.52
2023-09-26T10:09:21.769Z,18.65
2023-09-26T10:11:52.689Z,21.05
2023-09-26T10:14:25.219Z,17.95
2023-09-26T10:16:55.848Z,17.17
2023-09-26T10:19:42.131Z,24.77
2023-09-26T10:22:21.762Z,20.38
2023-09-26T10:24:51.662Z,15.82
2023-09-26T10:27:59.394Z,17.38
2023-09-26T10:30:29.773Z,20.77
2023-09-26T10:32:57.952Z,17.77
2023-09-26T10:35:27.503Z,16.25
2023-09-26T10:38:24.750Z,17.15
2023-09-26T10:40:52.726Z,16.20
2023-09-26T10:45:51.014Z,16.83
2023-09-26T10:51:09.748Z,15.68
2023-09-26T10:53:38.050Z,16.08
2023-09-26T10:56:06.272Z,15.90
2023-09-26T11:01:22.521Z,15.15
2023-09-26T11:03:50.307Z,11.90
2023-09-26T11:06:18.421Z,14.00
2023-09-26T11:08:46.134Z,14.95
2023-09-26T11:11:17.664Z,15.30
2023-09-26T11:13:45.534Z,15.20
2023-09-26T11:16:13.418Z,17.10
2023-09-26T11:18:41.202Z,14.82
2023-09-26T11:21:24.116Z,12.05
2023-09-26T11:23:54.908Z,11.23
2023-09-26T11:26:22.500Z,9.77
2023-09-26T11:28:50.911Z,14.45
2023-09-26T11:31:18.874Z,12.45
2023-09-26T11:33:47.199Z,11.82
2023-09-26T11:36:15.499Z,14.30
2023-09-26T11:38:50.455Z,11.93
2023-09-26T11:41:22.517Z,11.43
2023-09-26T11:43:57.305Z,12.77
2023-09-26T11:46:27.012Z,14.80
2023-09-26T11:48:54.628Z,12.20
2023-09-26T11:51:22.236Z,10.32
2023-09-26T11:53:50.321Z,11.63
2023-09-26T11:56:17.908Z,12.40
2023-09-26T11:58:46.722Z,11.02
2023-09-26T12:01:14.684Z,11.20
2023-09-26T12:03:42.250Z,14.48
2023-09-26T12:06:09.852Z,14.77
2023-09-26T12:08:37.677Z,12.52
2023-09-26T12:11:05.664Z,13.05
2023-09-26T12:13:33.415Z,13.60
2023-09-26T12:16:01.109Z,15.75
2023-09-26T12:18:28.769Z,13.60
2023-09-26T12:20:57.456Z,14.10
2023-09-26T12:23:28.317Z,10.45
2023-09-26T12:25:57.415Z,13.48
2023-09-26T12:28:25.002Z,13.10
2023-09-26T12:30:53.625Z,11.55
2023-09-26T12:33:22.845Z,12.88
2023-09-26T12:35:50.484Z,12.55
2023-09-26T12:38:19.001Z,13.13
2023-09-26T12:40:46.728Z,13.88
2023-09-26T12:43:14.374Z,11.45
2023-09-26T12:45:42.216Z,15.07
2023-09-26T12:48:09.728Z,12.77
2023-09-26T12:50:37.476Z,13.65
2023-09-26T12:53:05.383Z,14.45
2023-09-26T12:55:32.992Z,11.80
2023-09-26T12:58:00.578Z,13.68
2023-09-26T13:00:28.129Z,13.00
2023-09-26T13:02:55.867Z,12.82
2023-09-26T13:05:23.560Z,14.95
2023-09-26T13:07:51.072Z,16.15
2023-09-26T13:10:18.766Z,14.77
2023-09-26T13:12:46.263Z,16.35
2023-09-26T13:15:14.017Z,20.45
2023-09-26T13:17:42.015Z,16.42
2023-09-26T13:20:12.579Z,11.75
2023-09-26T13:22:40.460Z,16.75
2023-09-26T13:25:08.834Z,11.80
2023-09-26T13:27:36.483Z,13.45
2023-09-26T13:30:06.025Z,17.90
2023-09-26T13:32:33.956Z,18.30
2023-09-26T13:35:05.216Z,14.77
2023-09-26T13:37:33.125Z,14.25
2023-09-26T13:40:00.841Z,17.70
2023-09-26T13:42:28.467Z,20.52
2023-09-26T13:44:56.056Z,19.10
2023-09-26T13:47:23.825Z,16.45
2023-09-26T13:49:51.395Z,14.20
2023-09-26T13:52:19.020Z,13.52
2023-09-26T13:54:46.568Z,15.40
2023-09-26T13:57:15.362Z,13.13
2023-09-26T13:59:43.167Z,14.90
2023-09-26T14:02:11.031Z,11.65
2023-09-26T14:04:51.916Z,13.27
2023-09-26T14:07:26.436Z,14.13
2023-09-26T14:09:53.946Z,14.35
2023-09-26T14:12:21.604Z,11.77
2023-09-26T14:14:49.141Z,12.63
2023-09-26T14:17:17.689Z,13.90
2023-09-26T14:19:45.240Z,10.85
2023-09-26T14:22:12.869Z,11.75
2023-09-26T14:24:50.975Z,13.40
2023-09-26T14:27:19.696Z,11.75
2023-09-26T14:29:47.178Z,14.77
2023-09-26T14:32:15.037Z,12.27
2023-09-26T14:34:42.828Z,16.52
2023-09-26T14:37:10.601Z,13.43
2023-09-26T14:39:38.136Z,15.40
2023-09-26T14:42:05.771Z,14.27
2023-09-26T14:44:33.333Z,17.40
2023-09-26T14:47:01.161Z,14.57
2023-09-26T14:49:29.499Z,16.42
2023-09-26T14:51:57.148Z,12.18
2023-09-26T14:54:24.793Z,15.32
2023-09-26T14:56:52.444Z,11.65
2023-09-26T14:59:20.054Z,17.23
2023-09-26T15:01:47.683Z,18.50
2023-09-26T15:04:15.245Z,14.85
2023-09-26T15:06:42.839Z,11.93
2023-09-26T15:09:10.377Z,10.73
2023-09-26T15:11:38.126Z,16.50
2023-09-26T15:14:05.682Z,11.70
2023-09-26T15:16:33.350Z,14.23
2023-09-26T15:19:00.940Z,11.85
2023-09-26T15:21:28.814Z,12.70
2023-09-26T15:23:56.286Z,15.00
2023-09-26T15:26:24.008Z,11.80
2023-09-26T15:28:51.801Z,10.32
2023-09-26T15:31:20.425Z,10.77
2023-09-26T15:33:48.630Z,14.05
2023-09-26T15:36:17.180Z,11.40
2023-09-26T15:38:45.115Z,12.35
2023-09-26T15:41:16.492Z,14.90
2023-09-26T15:43:46.482Z,14.52
2023-09-26T15:46:14.273Z,13.52
2023-09-26T15:48:41.849Z,13.43
2023-09-26T15:51:12.103Z,13.77
2023-09-26T15:53:42.137Z,14.57
2023-09-26T15:56:09.816Z,10.73
2023-09-26T15:58:38.110Z,9.75
2023-09-26T16:01:06.600Z,8.60
2023-09-26T16:03:35.073Z,11.68
2023-09-26T16:06:03.763Z,10.45
2023-09-26T16:08:31.385Z,14.18
2023-09-26T16:10:59.163Z,11.93
2023-09-26T16:13:27.766Z,12.90
2023-09-26T16:15:55.358Z,17.25
2023-09-26T16:18:22.904Z,9.82
2023-09-26T16:20:50.398Z,12.00
2023-09-26T16:23:17.931Z,20.27
2023-09-26T16:25:45.540Z,18.45
2023-09-26T16:28:13.076Z,16.85
2023-09-26T16:30:40.696Z,18.23
2023-09-26T16:33:08.272Z,11.93
2023-09-26T16:35:35.932Z,9.10
2023-09-26T16:38:03.586Z,10.63
2023-09-26T16:40:31.977Z,8.35
2023-09-26T16:42:59.566Z,9.68
2023-09-26T16:45:28.740Z,8.80
2023-09-26T16:47:56.424Z,11.70
2023-09-26T16:50:24.219Z,9.70
2023-09-26T16:52:52.079Z,8.77
2023-09-26T16:55:19.969Z,12.60
2023-09-26T16:57:47.858Z,14.30
2023-09-26T17:00:15.968Z,9.65
2023-09-26T17:02:43.641Z,9.38
2023-09-26T17:05:11.420Z,11.57
2023-09-26T17:07:38.961Z,14.00
2023-09-26T17:10:08.322Z,11.05
2023-09-26T17:12:35.854Z,9.88
2023-09-26T17:15:03.641Z,10.75
2023-09-26T17:17:31.905Z,9.70
2023-09-26T17:20:05.461Z,12.13
2023-09-26T17:22:33.914Z,10.73
2023-09-26T17:25:01.853Z,8.05
2023-09-26T17:27:29.696Z,9.55
2023-09-26T17:29:57.366Z,9.25
2023-09-26T17:32:25.987Z,12.20
2023-09-26T17:34:53.666Z,8.25
2023-09-26T17:37:21.692Z,9.00
2023-09-26T17:39:49.235Z,8.05
2023-09-26T17:42:16.877Z,8.65
2023-09-26T17:44:44.316Z,9.45
2023-09-26T17:47:12.146Z,11.55
2023-09-26T17:49:39.729Z,10.23
2023-09-26T17:52:07.264Z,12.07
2023-09-26T17:54:34.802Z,9.73
2023-09-26T17:57:02.400Z,8.98
2023-09-26T17:59:30.032Z,9.35
2023-09-26T18:01:57.808Z,10.40
2023-09-26T18:04:25.530Z,10.85
2023-09-26T18:06:53.111Z,8.40
2023-09-26T18:09:21.048Z,15.63
2023-09-26T18:11:48.624Z,10.07
2023-09-26T18:14:16.419Z,11.32
2023-09-26T18:16:44.049Z,9.93
2023-09-26T18:19:11.675Z,12.20
2023-09-26T18:21:39.208Z,10.48
2023-09-26T18:24:06.777Z,9.90
2023-09-26T18:26:34.319Z,13.23
2023-09-26T18:29:02.292Z,10.43
2023-09-26T18:31:30.106Z,11.27
2023-09-26T18:33:57.664Z,11.93
2023-09-26T18:36:25.423Z,10.32
2023-09-26T18:38:52.885Z,7.82
2023-09-26T18:41:21.996Z,12.68
2023-09-26T18:43:49.857Z,10.75
2023-09-26T18:46:17.450Z,13.35
2023-09-26T18:48:45.040Z,11.18
2023-09-26T18:51:12.782Z,10.38
2023-09-26T18:53:40.401Z,12.25
2023-09-26T18:56:10.234Z,10.88
2023-09-26T18:58:37.878Z,12.05
2023-09-26T19:01:05.431Z,10.48
2023-09-26T19:03:33.282Z,11.68
2023-09-26T19:06:04.246Z,10.60
2023-09-26T19:08:32.391Z,15.52
2023-09-26T19:11:00.470Z,15.57
2023-09-26T19:13:28.202Z,11.40
2023-09-26T19:15:56.180Z,14.70
2023-09-26T19:18:23.856Z,10.98
2023-09-26T19:20:51.541Z,9.60
2023-09-26T19:23:19.300Z,13.07
2023-09-26T19:25:46.877Z,13.13
2023-09-26T19:28:16.298Z,14.18
2023-09-26T19:30:47.462Z,13.88
2023-09-26T19:33:15.224Z,11.52
2023-09-26T19:35:42.840Z,13.50
2023-09-26T19:38:10.492Z,13.40
2023-09-26T19:40:38.081Z,12.57
2023-09-26T19:43:07.649Z,10.18
2023-09-26T19:45:38.630Z,11.93
2023-09-26T19:48:07.243Z,11.63
2023-09-26T19:50:34.905Z,11.57
2023-09-26T19:53:02.558Z,13.80
2023-09-26T19:55:30.171Z,10.95
2023-09-26T19:57:58.619Z,13.07
2023-09-26T20:00:26.163Z,16.17
2023-09-26T20:02:53.837Z,13.65
2023-09-26T20:05:21.584Z,13.77
2023-09-26T20:07:49.242Z,13.88
2023-09-26T20:10:16.814Z,12.98
2023-09-26T20:12:45.533Z,14.07
2023-09-26T20:15:23.131Z,13.95
2023-09-26T20:17:52.321Z,13.95
2023-09-26T20:20:20.353Z,14.35
2023-09-26T20:22:50.092Z,13.38
2023-09-26T20:25:18.477Z,13.45
2023-09-26T20:27:46.448Z,15.80
2023-09-26T20:30:14.280Z,14.65
2023-09-26T20:32:41.957Z,14.68
2023-09-26T20:35:09.988Z,14.05
2023-09-26T20:37:37.594Z,13.95
2023-09-26T20:40:05.685Z,14.07
2023-09-26T20:42:33.258Z,13.65
2023-09-26T20:45:00.854Z,13.65
2023-09-26T20:47:29.186Z,18.75
2023-09-26T20:49:56.904Z,15.32
2023-09-26T20:52:24.527Z,15.35
2023-09-26T20:54:52.014Z,15.45
2023-09-26T20:57:19.600Z,13.20
2023-09-26T20:59:47.212Z,15.27
2023-09-26T21:02:14.716Z,19.02
2023-09-26T21:04:42.375Z,17.05
2023-09-26T21:07:10.008Z,15.82
2023-09-26T21:09:37.577Z,12.60
2023-09-26T21:12:07.750Z,15.52
2023-09-26T21:14:36.541Z,13.43
2023-09-26T21:17:04.250Z,13.82
2023-09-26T21:19:33.172Z,13.48
2023-09-26T21:22:00.791Z,14.93
2023-09-26T21:24:28.462Z,14.52
2023-09-26T21:26:56.061Z,12.73
2023-09-26T21:29:23.659Z,13.68
2023-09-26T21:31:51.231Z,14.00
2023-09-26T21:34:18.847Z,15.73
2023-09-26T21:36:46.397Z,21.17
2023-09-26T21:39:14.224Z,15.68
2023-09-26T21:41:42.256Z,12.45
2023-09-26T21:44:09.942Z,14.02
2023-09-26T21:46:37.631Z,13.65
2023-09-26T21:49:05.435Z,13.65
2023-09-26T21:51:33.652Z,13.93
2023-09-26T21:54:01.194Z,13.68
2023-09-26T21:56:29.256Z,18.33
2023-09-26T21:58:56.990Z,15.60
2023-09-26T22:01:24.769Z,15.25
2023-09-26T22:03:52.688Z,16.67
2023-09-26T22:06:20.392Z,20.10
2023-09-26T22:08:48.057Z,17.17
2023-09-26T22:11:15.674Z,21.25
2023-09-26T22:13:43.254Z,18.02
2023-09-26T22:16:10.873Z,24.23
2023-09-26T22:18:39.451Z,19.15
2023-09-26T22:21:07.024Z,22.63
2023-09-26T22:23:34.678Z,16.92
2023-09-26T22:26:02.220Z,19.92
2023-09-26T22:28:30.162Z,19.35
2023-09-26T22:30:57.687Z,18.63
2023-09-26T22:33:25.814Z,23.25
2023-09-26T22:35:53.351Z,21.63
2023-09-26T22:38:21.404Z,14.90
2023-09-26T22:40:51.797Z,20.00
2023-09-26T22:43:20.797Z,19.70
2023-09-26T22:45:49.338Z,16.80
2023-09-26T22:48:17.643Z,22.30
2023-09-26T22:50:46.960Z,22.17
2023-09-26T22:53:14.776Z,19.35
2023-09-26T22:55:42.411Z,20.27
2023-09-26T22:58:10.036Z,21.10
2023-09-26T23:00:37.677Z,17.10
2023-09-26T23:03:05.685Z,15.77
2023-09-26T23:05:39.865Z,16.50
2023-09-26T23:08:08.777Z,14.10
2023-09-26T23:10:36.560Z,15.38
2023-09-26T23:13:04.305Z,17.35
2023-09-26T23:15:31.850Z,22.83
2023-09-26T23:17:59.538Z,22.88
2023-09-26T23:20:27.273Z,18.05
2023-09-26T23:22:55.439Z,20.95
2023-09-26T23:25:23.088Z,17.98
2023-09-26T23:27:50.892Z,22.98
2023-09-26T23:30:18.790Z,21.95
2023-09-26T23:32:46.623Z,21.80
2023-09-26T23:35:20.433Z,20.73
2023-09-26T23:37:50.153Z,19.42
2023-09-26T23:40:20.878Z,17.63
2023-09-26T23:42:48.595Z,25.17
2023-09-26T23:45:16.199Z,22.48
2023-09-26T23:47:44.267Z,21.58
2023-09-26T23:50:11.995Z,16.90
2023-09-26T23:52:40.362Z,13.98
2023-09-26T23:55:10.883Z,23.85
2023-09-26T23:57:38.649Z,18.75
